GLACB EGCB-ANY
Flight info
| Callsign | GLACB |
|---|---|
| Flight time | N/A |
| Altitude | 3000 |
| Route | EGCB |
| Aircraft | PA28/L-SDE2E3FGHIJ1RWXY/LB1 |
Departure
| Time | 2026-04-30 19:53 |
|---|---|
| Airport | Manchester Barton Aerodrome (EGCB) |
Arrival
| Time | N/A |
|---|---|
| Airport | ANY |
| Time | Latitude | Longitude | Altitude | Speed | Heading |
|---|---|---|---|---|---|
| 2026-04-30 19:50 | 53.47116 | -2.38658 | 67 ft | 0 kts | 356° |
| 2026-04-30 19:51 | 53.47132 | -2.38710 | 63 ft | 16 kts | 271° |
| 2026-04-30 19:51 | 53.47103 | -2.38974 | 72 ft | 23 kts | 258° |
| 2026-04-30 19:52 | 53.47089 | -2.39206 | 70 ft | 17 kts | 269° |
| 2026-04-30 19:52 | 53.47109 | -2.39322 | 66 ft | 9 kts | 3° |
| 2026-04-30 19:52 | 53.47160 | -2.38954 | 94 ft | 56 kts | 78° |
| 2026-04-30 19:52 | 53.47193 | -2.38287 | 362 ft | 56 kts | 79° |
| 2026-04-30 19:53 | 53.47471 | -2.37801 | 584 ft | 63 kts | 21° |
| 2026-04-30 19:53 | 53.47846 | -2.38139 | 694 ft | 87 kts | 264° |
| 2026-04-30 19:53 | 53.47692 | -2.39317 | 722 ft | 113 kts | 256° |
| 2026-04-30 19:53 | 53.47421 | -2.40419 | 655 ft | 95 kts | 201° |
| 2026-04-30 19:54 | 53.47099 | -2.39775 | 221 ft | 86 kts | 86° |
| 2026-04-30 19:54 | 53.47169 | -2.38879 | 74 ft | 62 kts | 80° |
| 2026-04-30 19:54 | 53.47214 | -2.38192 | 366 ft | 56 kts | 55° |
| 2026-04-30 19:54 | 53.47639 | -2.38272 | 490 ft | 76 kts | 332° |
| 2026-04-30 19:55 | 53.47657 | -2.39251 | 572 ft | 111 kts | 254° |
| 2026-04-30 19:55 | 53.47346 | -2.40530 | 619 ft | 110 kts | 210° |
| 2026-04-30 19:55 | 53.46952 | -2.40056 | 401 ft | 76 kts | 73° |
| 2026-04-30 19:55 | 53.47140 | -2.39197 | 76 ft | 76 kts | 76° |
| 2026-04-30 19:56 | 53.47186 | -2.38436 | 210 ft | 66 kts | 80° |
| 2026-04-30 19:56 | 53.47397 | -2.37926 | 415 ft | 66 kts | 348° |
| 2026-04-30 19:56 | 53.47796 | -2.38498 | 582 ft | 91 kts | 269° |
| 2026-04-30 19:56 | 53.47619 | -2.39621 | 582 ft | 103 kts | 249° |
| 2026-04-30 19:57 | 53.47144 | -2.39572 | 297 ft | 96 kts | 105° |
| 2026-04-30 19:57 | 53.47194 | -2.38598 | 79 ft | 65 kts | 89° |
| 2026-04-30 19:57 | 53.47160 | -2.38295 | 63 ft | 0 kts | 63° |
| 2026-04-30 19:57 | 53.47116 | -2.38658 | 69 ft | 0 kts | 356° |
| 2026-04-30 20:00 | 53.47129 | -2.38769 | 74 ft | 22 kts | 260° |
| 2026-04-30 20:00 | 53.47111 | -2.38986 | 72 ft | 15 kts | 264° |
| 2026-04-30 20:00 | 53.47106 | -2.39128 | 70 ft | 10 kts | 294° |
| 2026-04-30 20:00 | 53.47139 | -2.39133 | 70 ft | 1 kts | 48° |
| 2026-04-30 20:01 | 53.47219 | -2.38170 | 211 ft | 75 kts | 75° |
| 2026-04-30 20:01 | 53.47578 | -2.37978 | 406 ft | 83 kts | 316° |
| 2026-04-30 20:01 | 53.47588 | -2.38943 | 544 ft | 101 kts | 273° |
| 2026-04-30 20:02 | 53.47124 | -2.39421 | 202 ft | 93 kts | 81° |
| 2026-04-30 20:02 | 53.47191 | -2.38471 | 136 ft | 60 kts | 74° |
| 2026-04-30 20:03 | 53.46543 | -2.37876 | 509 ft | 101 kts | 216° |
| 2026-04-30 20:03 | 53.46330 | -2.38416 | 816 ft | 40 kts | 220° |
| 2026-04-30 20:03 | 53.46005 | -2.39621 | 593 ft | 104 kts | 248° |
| 2026-04-30 20:03 | 53.46006 | -2.40943 | 563 ft | 131 kts | 316° |
| 2026-04-30 20:04 | 53.46184 | -2.41084 | 498 ft | 27 kts | 68° |
| 2026-04-30 20:04 | 53.47116 | -2.38658 | 69 ft | 5 kts | 356° |
| 2026-04-30 20:07 | 53.47117 | -2.38658 | 69 ft | 1 kts | 356° |
| 2026-04-30 20:08 | 53.47126 | -2.38753 | 72 ft | 32 kts | 262° |
| 2026-04-30 20:08 | 53.47088 | -2.39215 | 71 ft | 38 kts | 260° |
| 2026-04-30 20:08 | 53.47121 | -2.39396 | 66 ft | 15 kts | 72° |
| 2026-04-30 20:08 | 53.47170 | -2.38957 | 150 ft | 48 kts | 75° |
| 2026-04-30 20:09 | 53.47027 | -2.38605 | 127 ft | 2 kts | 251° |